SHBC weather

Las Brisas De Chicureo Heliport
Santiago, Santiago Metropolitan Region, Chile

Public forecast

Using degrees Celsius for public forecast. Weather courtesy of forecast.io.

Closest aviation weather report (METAR) to Las Brisas De Chicureo Heliport

Report is more than 6 hours old.

Closest report is Lipangui Airport, 9.5 nm (17.5 km) SW. Retrieved 2020/05/30 07:00 UTC (2 months ago):

SCKL 300700Z VRB02KT 9999 -DZ SCT030 BKN070 21/20 A3007 NOSIG

Closest aviation forecast (TAF) to Las Brisas De Chicureo Heliport

Closest forecast is Comodoro Arturo Merino Benítez International Airport, 10.2 nm (19.0 km) SSW. Retrieved 2020/08/06 06:06 UTC (1 hour ago):

TAF SCEL 060431Z 0606/0706 16004KT CAVOK TX17/0618Z TN04/0610Z BECMG 0607/0609 4000 BR NSC TEMPO 0609/0612 VRB02KT 0500 FG BKN003 BECMG 0615/0617 18005KT 6000 BECMG 0618/0620 20008KT CAVOK TEMPO 0619/0623 16008KT